createdAt,value
2018-05-06T00:00:47.970Z,8.73
2018-05-06T00:02:50.604Z,8.57
2018-05-06T00:04:53.225Z,7.83
2018-05-06T00:06:55.837Z,7.97
2018-05-06T00:08:58.588Z,7.07
2018-05-06T00:11:01.213Z,7.97
2018-05-06T00:13:04.387Z,6.83
2018-05-06T00:15:07.106Z,7.57
2018-05-06T00:17:09.683Z,8.03
2018-05-06T00:19:12.373Z,7.07
2018-05-06T00:21:15.000Z,7.07
2018-05-06T00:23:17.659Z,6.83
2018-05-06T00:25:20.263Z,6.70
2018-05-06T00:27:23.656Z,6.80
2018-05-06T00:29:26.337Z,7.60
2018-05-06T00:31:29.708Z,7.13
2018-05-06T00:33:32.500Z,7.53
2018-05-06T00:35:35.090Z,7.20
2018-05-06T00:37:38.451Z,7.40
2018-05-06T00:39:41.074Z,7.40
2018-05-06T00:41:43.689Z,6.97
2018-05-06T00:43:46.402Z,6.50
2018-05-06T00:45:49.790Z,7.07
2018-05-06T00:47:53.176Z,6.60
2018-05-06T00:49:55.783Z,6.90
2018-05-06T00:51:58.387Z,6.37
2018-05-06T00:54:01.014Z,7.20
2018-05-06T00:56:04.398Z,7.10
2018-05-06T00:58:07.049Z,6.97
2018-05-06T01:00:09.973Z,6.83
2018-05-06T01:02:13.364Z,7.40
2018-05-06T01:04:16.008Z,7.50
2018-05-06T01:06:18.632Z,7.43
2018-05-06T01:08:21.408Z,7.10
2018-05-06T01:10:24.010Z,7.77
2018-05-06T01:12:26.656Z,7.57
2018-05-06T01:14:29.356Z,7.00
2018-05-06T01:16:32.084Z,7.07
2018-05-06T01:18:34.723Z,7.33
2018-05-06T01:20:37.325Z,7.20
2018-05-06T01:22:40.727Z,7.17
2018-05-06T01:24:43.367Z,7.10
2018-05-06T01:26:46.001Z,7.43
2018-05-06T01:28:49.488Z,8.23
2018-05-06T01:30:52.890Z,7.20
2018-05-06T01:32:56.299Z,7.07
2018-05-06T01:34:58.939Z,7.50
2018-05-06T01:37:01.545Z,7.70
2018-05-06T01:39:04.171Z,7.43
2018-05-06T01:41:06.799Z,7.03
2018-05-06T01:43:09.416Z,6.33
2018-05-06T01:45:12.808Z,6.33
2018-05-06T01:47:15.408Z,6.93
2018-05-06T01:49:18.847Z,7.13
2018-05-06T01:51:21.454Z,5.83
2018-05-06T01:53:24.097Z,6.00
2018-05-06T01:55:26.735Z,5.90
2018-05-06T01:57:30.118Z,6.20
2018-05-06T01:59:32.793Z,6.40
2018-05-06T02:01:35.517Z,6.77
2018-05-06T02:03:38.120Z,6.97
2018-05-06T02:05:40.740Z,6.50
2018-05-06T02:07:44.112Z,7.00
2018-05-06T02:09:46.731Z,7.23
2018-05-06T02:11:49.349Z,6.90
2018-05-06T02:13:52.049Z,5.60
2018-05-06T02:15:55.434Z,6.70
2018-05-06T02:17:58.826Z,7.00
2018-05-06T02:20:01.478Z,6.90
2018-05-06T02:22:04.126Z,6.73
2018-05-06T02:24:06.756Z,6.70
2018-05-06T02:26:10.163Z,6.60
2018-05-06T02:28:13.541Z,6.30
2018-05-06T02:30:16.273Z,6.97
2018-05-06T02:32:18.868Z,6.83
2018-05-06T02:34:21.474Z,6.77
2018-05-06T02:36:24.951Z,6.10
2018-05-06T02:38:27.579Z,6.40
2018-05-06T02:40:30.388Z,7.10
2018-05-06T02:42:33.008Z,7.10
2018-05-06T02:44:36.399Z,7.53
2018-05-06T02:46:39.791Z,6.73
2018-05-06T02:48:43.175Z,6.80
2018-05-06T02:50:46.631Z,6.80
2018-05-06T02:52:49.444Z,6.87
2018-05-06T02:54:52.860Z,6.83
2018-05-06T02:56:56.251Z,7.47
2018-05-06T02:58:59.640Z,6.73
2018-05-06T03:01:03.032Z,7.00
2018-05-06T03:03:06.410Z,7.13
2018-05-06T03:05:09.040Z,6.73
2018-05-06T03:07:11.661Z,6.63
2018-05-06T03:09:14.264Z,7.30
2018-05-06T03:11:17.785Z,6.87
2018-05-06T03:13:20.388Z,6.70
2018-05-06T03:15:23.137Z,6.77
2018-05-06T03:17:25.765Z,7.00
2018-05-06T03:19:29.225Z,7.03
2018-05-06T03:21:32.627Z,6.00
2018-05-06T03:23:35.284Z,6.57
2018-05-06T03:25:37.953Z,6.63
2018-05-06T03:27:40.568Z,6.93
2018-05-06T03:29:43.277Z,6.80
2018-05-06T03:31:46.661Z,6.83
2018-05-06T03:33:50.063Z,6.10
2018-05-06T03:35:53.476Z,6.60
2018-05-06T03:37:56.091Z,6.37
2018-05-06T03:39:58.731Z,6.90
2018-05-06T03:42:01.380Z,6.67
2018-05-06T03:44:04.739Z,6.50
2018-05-06T03:46:07.442Z,6.80
2018-05-06T03:48:10.842Z,6.57
2018-05-06T03:50:13.628Z,6.63
2018-05-06T03:52:16.260Z,6.70
2018-05-06T03:54:18.915Z,6.50
2018-05-06T03:59:19.358Z,6.23
2018-05-06T04:01:21.974Z,6.03
2018-05-06T04:03:24.764Z,5.63
2018-05-06T04:05:28.138Z,6.30
2018-05-06T04:07:30.761Z,6.20
2018-05-06T04:09:33.364Z,5.63
2018-05-06T04:11:36.123Z,6.23
2018-05-06T04:13:38.737Z,5.37
2018-05-06T04:15:41.366Z,6.10
2018-05-06T04:17:43.984Z,5.53
2018-05-06T04:19:46.691Z,6.10
2018-05-06T04:21:49.324Z,5.60
2018-05-06T04:23:51.938Z,5.67
2018-05-06T04:25:54.566Z,5.07
2018-05-06T04:27:57.268Z,5.73
2018-05-06T04:29:59.920Z,5.43
2018-05-06T04:32:02.544Z,5.87
2018-05-06T04:34:05.189Z,5.17
2018-05-06T04:36:07.813Z,6.07
2018-05-06T04:38:10.520Z,5.37
2018-05-06T04:40:13.124Z,5.47
2018-05-06T04:42:15.755Z,5.13
2018-05-06T04:44:19.209Z,5.23
2018-05-06T04:46:22.525Z,5.30
2018-05-06T04:48:25.912Z,5.43
2018-05-06T04:50:28.505Z,5.17
2018-05-06T04:52:31.896Z,5.97
2018-05-06T04:54:34.532Z,5.90
2018-05-06T04:56:37.157Z,5.63
2018-05-06T04:58:39.761Z,5.90
2018-05-06T05:00:42.354Z,5.83
2018-05-06T05:02:44.992Z,5.50
2018-05-06T05:04:47.584Z,5.97
2018-05-06T05:06:50.231Z,6.70
2018-05-06T05:08:53.693Z,5.43
2018-05-06T05:10:56.303Z,6.10
2018-05-06T05:12:59.676Z,5.70
2018-05-06T05:15:02.331Z,5.73
2018-05-06T05:17:04.944Z,6.40
2018-05-06T05:19:08.323Z,5.13
2018-05-06T05:21:10.942Z,5.70
2018-05-06T05:23:13.519Z,5.07
2018-05-06T05:25:16.124Z,5.27
2018-05-06T05:27:18.743Z,5.30
2018-05-06T05:29:22.100Z,5.43
2018-05-06T05:31:24.795Z,5.30
2018-05-06T05:33:27.432Z,5.63
2018-05-06T05:35:30.044Z,5.33
2018-05-06T05:37:32.676Z,5.40
2018-05-06T05:39:35.276Z,5.00
2018-05-06T05:41:38.648Z,5.50
2018-05-06T05:43:41.273Z,4.73
2018-05-06T05:45:43.861Z,4.60
2018-05-06T05:47:47.298Z,5.23
2018-05-06T05:49:49.899Z,5.07
2018-05-06T05:51:52.517Z,4.93
2018-05-06T05:53:55.146Z,4.20
2018-05-06T05:55:57.736Z,4.20
2018-05-06T05:58:00.609Z,4.40
2018-05-06T06:00:03.997Z,4.70
2018-05-06T06:02:07.364Z,4.63
2018-05-06T06:04:09.977Z,4.33
2018-05-06T06:06:12.562Z,4.60
2018-05-06T06:08:15.184Z,4.83
2018-05-06T06:10:17.789Z,4.47
2018-05-06T06:12:20.476Z,4.73
2018-05-06T06:14:23.095Z,4.13
2018-05-06T06:16:25.720Z,4.70
2018-05-06T06:18:28.339Z,4.60
2018-05-06T06:20:31.711Z,4.30
2018-05-06T06:22:34.301Z,4.03
2018-05-06T06:24:37.829Z,4.00
2018-05-06T06:26:41.146Z,4.43
2018-05-06T06:28:43.803Z,4.37
2018-05-06T06:30:46.426Z,4.50
2018-05-06T06:32:49.103Z,4.80
2018-05-06T06:34:51.660Z,4.57
2018-05-06T06:36:54.311Z,4.13
2018-05-06T06:38:56.927Z,4.00
2018-05-06T06:40:59.518Z,4.63
2018-05-06T06:43:03.024Z,4.43
2018-05-06T06:45:06.473Z,4.73
2018-05-06T06:47:09.925Z,4.80
2018-05-06T06:49:12.621Z,5.07
2018-05-06T06:51:15.222Z,4.50
2018-05-06T06:53:17.836Z,4.63
2018-05-06T06:55:21.292Z,5.40
2018-05-06T06:57:23.898Z,4.63
2018-05-06T06:59:26.499Z,4.70
2018-05-06T07:01:29.093Z,4.90
2018-05-06T07:03:31.780Z,4.73
2018-05-06T07:05:34.388Z,5.50
2018-05-06T07:07:37.778Z,6.10
2018-05-06T07:09:40.388Z,5.77
2018-05-06T07:11:43.752Z,5.90
2018-05-06T07:13:46.436Z,5.83
2018-05-06T07:15:49.218Z,6.00
2018-05-06T07:17:52.607Z,6.00
2018-05-06T07:19:55.268Z,5.40
2018-05-06T07:21:57.919Z,5.03
2018-05-06T07:24:00.546Z,5.77
2018-05-06T07:26:03.938Z,5.83
2018-05-06T07:28:07.308Z,5.30
2018-05-06T07:30:09.929Z,4.80
2018-05-06T07:32:12.540Z,4.77
2018-05-06T07:34:15.155Z,4.20
2018-05-06T07:36:18.660Z,4.23
2018-05-06T07:38:22.020Z,4.17
2018-05-06T07:40:24.625Z,4.47
2018-05-06T07:42:27.993Z,4.00
2018-05-06T07:44:30.772Z,4.17
2018-05-06T07:46:33.508Z,3.70
2018-05-06T07:48:36.108Z,4.27
2018-05-06T07:50:38.722Z,3.70
2018-05-06T07:52:41.328Z,4.10
2018-05-06T07:54:44.058Z,3.63
2018-05-06T07:56:46.687Z,3.47
2018-05-06T07:58:49.442Z,3.70
2018-05-06T08:00:51.974Z,4.07
2018-05-06T08:02:54.867Z,3.73
2018-05-06T08:04:57.519Z,4.20
2018-05-06T08:07:01.045Z,4.00
2018-05-06T08:09:03.660Z,3.43
2018-05-06T08:11:07.044Z,3.57
2018-05-06T08:13:10.405Z,3.70
2018-05-06T08:15:13.091Z,4.60
2018-05-06T08:17:15.707Z,4.57
2018-05-06T08:19:18.314Z,4.87
2018-05-06T08:21:21.320Z,4.60
2018-05-06T08:23:23.939Z,4.57
2018-05-06T08:25:26.578Z,4.10
2018-05-06T08:27:29.199Z,4.27
2018-05-06T08:29:31.885Z,4.00
2018-05-06T08:31:34.479Z,4.80
2018-05-06T08:33:37.097Z,4.27
2018-05-06T08:35:40.536Z,4.40
2018-05-06T08:37:43.155Z,4.80
2018-05-06T08:39:46.552Z,4.23
2018-05-06T08:41:49.184Z,4.17
2018-05-06T08:43:51.800Z,4.43
2018-05-06T08:45:55.229Z,4.70
2018-05-06T08:47:58.657Z,4.30
2018-05-06T08:50:01.271Z,4.60
2018-05-06T08:52:04.643Z,4.00
2018-05-06T08:54:07.277Z,4.47
2018-05-06T08:56:10.732Z,4.07
2018-05-06T08:58:13.316Z,4.00
2018-05-06T09:00:15.940Z,4.67
2018-05-06T09:02:18.543Z,4.00
2018-05-06T09:04:21.154Z,4.17
2018-05-06T09:06:24.540Z,4.67
2018-05-06T09:08:27.181Z,4.40
2018-05-06T09:10:29.808Z,3.97
2018-05-06T09:12:33.193Z,3.30
2018-05-06T09:14:36.625Z,3.77
2018-05-06T09:16:39.248Z,3.67
2018-05-06T09:18:41.871Z,4.00
2018-05-06T09:20:44.512Z,3.50
2018-05-06T09:22:47.871Z,3.30
2018-05-06T09:24:50.484Z,3.37
2018-05-06T09:26:53.876Z,3.17
2018-05-06T09:28:57.242Z,3.40
2018-05-06T09:30:59.892Z,3.50
2018-05-06T09:33:02.521Z,3.17
2018-05-06T09:35:05.964Z,3.23
2018-05-06T09:37:08.563Z,3.63
2018-05-06T09:39:11.201Z,3.27
2018-05-06T09:41:13.824Z,3.40
2018-05-06T09:43:16.427Z,2.97
2018-05-06T09:45:20.180Z,3.50
2018-05-06T09:47:24.693Z,3.07
2018-05-06T09:49:29.119Z,4.50
2018-05-06T09:51:34.434Z,7.80
2018-05-06T09:53:39.804Z,7.33
2018-05-06T09:55:44.808Z,2.90
2018-05-06T09:57:50.123Z,3.00
2018-05-06T09:59:56.056Z,3.37
2018-05-06T10:02:01.841Z,5.47
2018-05-06T10:04:07.984Z,2.67
2018-05-06T10:06:12.903Z,2.60
2018-05-06T10:08:18.057Z,2.90
2018-05-06T10:10:23.534Z,2.67
2018-05-06T10:12:29.272Z,2.97
2018-05-06T10:14:35.150Z,2.90
2018-05-06T10:16:39.907Z,3.27
2018-05-06T10:18:45.086Z,2.77
2018-05-06T10:20:49.737Z,5.03
2018-05-06T10:22:54.231Z,7.37
2018-05-06T10:24:59.048Z,4.53
2018-05-06T10:27:04.136Z,7.00
2018-05-06T10:29:09.396Z,3.10
2018-05-06T10:31:14.457Z,2.93
2018-05-06T10:33:19.217Z,3.00
2018-05-06T10:35:26.681Z,4.27
2018-05-06T10:37:32.359Z,2.90
2018-05-06T10:39:37.089Z,2.77
2018-05-06T10:41:42.436Z,3.10
2018-05-06T10:43:47.560Z,2.57
2018-05-06T10:45:52.263Z,3.53
2018-05-06T10:47:58.744Z,3.77
2018-05-06T10:50:03.175Z,5.37
2018-05-06T10:52:08.904Z,2.97
2018-05-06T10:54:18.697Z,2.60
2018-05-06T10:56:24.694Z,2.63
2018-05-06T10:58:30.413Z,2.87
2018-05-06T11:00:35.207Z,2.90
2018-05-06T11:02:39.963Z,3.20
2018-05-06T11:04:44.882Z,3.23
2018-05-06T11:06:52.911Z,2.53
2018-05-06T11:08:58.068Z,2.90
2018-05-06T11:11:03.473Z,3.20
2018-05-06T11:13:08.936Z,2.87
2018-05-06T11:15:15.614Z,2.43
2018-05-06T11:17:21.651Z,3.23
2018-05-06T11:19:33.331Z,3.03
2018-05-06T11:21:38.926Z,3.00
2018-05-06T11:23:44.394Z,3.17
2018-05-06T11:25:49.343Z,2.93
2018-05-06T11:27:55.237Z,2.80
2018-05-06T11:29:58.319Z,2.87
2018-05-06T11:32:01.036Z,4.00
2018-05-06T11:34:06.299Z,3.37
2018-05-06T11:36:10.819Z,4.00
2018-05-06T11:38:16.603Z,3.17
2018-05-06T11:40:20.031Z,3.77
2018-05-06T11:42:25.040Z,3.40
2018-05-06T11:44:31.597Z,3.80
2018-05-06T11:46:38.909Z,3.50
2018-05-06T11:48:43.648Z,3.27
2018-05-06T11:50:48.229Z,3.87
2018-05-06T11:52:53.954Z,2.57
2018-05-06T11:54:58.585Z,2.73
2018-05-06T11:57:01.219Z,3.00
2018-05-06T11:59:08.260Z,2.80
2018-05-06T12:01:13.163Z,3.10
2018-05-06T12:03:17.811Z,3.17
2018-05-06T12:05:21.832Z,3.27
2018-05-06T12:07:29.471Z,2.93
2018-05-06T12:09:33.751Z,3.07
2018-05-06T12:11:37.141Z,4.40
2018-05-06T12:13:41.505Z,3.30
2018-05-06T12:15:47.874Z,3.10
2018-05-06T12:17:52.018Z,2.97
2018-05-06T12:19:56.515Z,5.37
2018-05-06T12:21:59.350Z,3.33
2018-05-06T12:24:03.902Z,5.87
2018-05-06T12:26:07.734Z,5.53
2018-05-06T12:28:10.423Z,3.50
2018-05-06T12:30:13.205Z,4.57
2018-05-06T12:32:15.844Z,3.80
2018-05-06T12:34:18.780Z,3.70
2018-05-06T12:36:21.781Z,3.60
2018-05-06T12:38:24.744Z,3.50
2018-05-06T12:40:28.794Z,2.90
2018-05-06T12:42:31.489Z,3.17
2018-05-06T12:44:34.090Z,2.90
2018-05-06T12:46:37.666Z,3.37
2018-05-06T12:48:40.355Z,3.03
2018-05-06T12:50:43.035Z,4.83
2018-05-06T12:52:47.073Z,5.67
2018-05-06T12:54:50.139Z,3.87
2018-05-06T12:56:52.926Z,3.28
2018-05-06T12:58:56.033Z,5.17
2018-05-06T13:00:58.712Z,4.07
2018-05-06T13:03:01.348Z,4.67
2018-05-06T13:05:03.944Z,2.90
2018-05-06T13:07:06.640Z,3.40
2018-05-06T13:09:10.527Z,3.07
2018-05-06T13:11:18.202Z,3.57
2018-05-06T13:13:20.829Z,2.97
2018-05-06T13:15:23.429Z,2.40
2018-05-06T13:17:26.027Z,2.63
2018-05-06T13:19:28.688Z,3.03
2018-05-06T13:21:31.328Z,2.87
2018-05-06T13:23:33.941Z,2.70
2018-05-06T13:25:36.545Z,2.22
2018-05-06T13:27:39.152Z,2.42
2018-05-06T13:29:42.136Z,2.70
2018-05-06T13:31:44.744Z,2.87
2018-05-06T13:33:47.376Z,3.43
2018-05-06T13:35:49.983Z,3.10
2018-05-06T13:37:53.418Z,2.83
2018-05-06T13:39:56.377Z,3.72
2018-05-06T13:41:58.989Z,3.25
2018-05-06T13:44:01.660Z,2.63
2018-05-06T13:46:04.250Z,2.70
2018-05-06T13:48:06.862Z,3.05
2018-05-06T13:50:10.260Z,2.83
2018-05-06T13:52:13.666Z,2.10
2018-05-06T13:54:16.287Z,2.00
2018-05-06T13:56:18.911Z,2.78
2018-05-06T13:58:22.267Z,2.60
2018-05-06T14:00:24.906Z,2.50
2018-05-06T14:02:27.507Z,2.78
2018-05-06T14:04:31.720Z,2.60
2018-05-06T14:06:34.397Z,2.53
2018-05-06T14:08:37.532Z,2.60
2018-05-06T14:10:40.295Z,2.33
2018-05-06T14:12:42.906Z,2.45
2018-05-06T14:14:45.561Z,2.58
2018-05-06T14:16:48.944Z,2.47
2018-05-06T14:18:52.397Z,2.60
2018-05-06T14:20:55.057Z,2.20
2018-05-06T14:22:57.669Z,2.42
2018-05-06T14:25:00.358Z,2.28
2018-05-06T14:27:05.027Z,2.60
2018-05-06T14:29:08.001Z,2.23
2018-05-06T14:31:12.692Z,2.70
2018-05-06T14:33:19.202Z,2.35
2018-05-06T14:35:23.440Z,1.98
2018-05-06T14:37:26.992Z,2.13
2018-05-06T14:39:31.557Z,2.43
2018-05-06T14:41:36.256Z,2.22
2018-05-06T14:43:39.122Z,2.43
2018-05-06T14:45:43.825Z,2.55
2018-05-06T14:47:59.296Z,2.10
2018-05-06T14:50:03.092Z,2.33
2018-05-06T14:52:05.889Z,2.30
2018-05-06T14:54:09.213Z,2.43
2018-05-06T14:56:13.660Z,2.60
2018-05-06T14:58:16.669Z,2.30
2018-05-06T15:00:20.218Z,2.40
2018-05-06T15:02:23.290Z,2.20
2018-05-06T15:04:26.954Z,2.50
2018-05-06T15:06:29.855Z,2.10
2018-05-06T15:08:32.644Z,2.25
2018-05-06T15:10:35.684Z,2.50
2018-05-06T15:12:38.460Z,2.27
2018-05-06T15:14:41.491Z,2.60
2018-05-06T15:16:45.025Z,2.17
2018-05-06T15:18:47.935Z,2.40
2018-05-06T15:20:50.740Z,2.28
2018-05-06T15:22:53.485Z,3.10
2018-05-06T15:24:56.678Z,2.67
2018-05-06T15:27:00.199Z,2.30
2018-05-06T15:29:03.074Z,2.07
2018-05-06T15:31:05.928Z,2.75
2018-05-06T15:33:08.638Z,2.28
2018-05-06T15:35:12.069Z,2.50
2018-05-06T15:37:14.925Z,2.60
2018-05-06T15:39:17.713Z,2.12
2018-05-06T15:41:20.394Z,2.83
2018-05-06T15:43:24.049Z,2.75
2018-05-06T15:45:26.882Z,2.00
2018-05-06T15:47:30.496Z,2.40
2018-05-06T15:49:33.248Z,2.47
2018-05-06T15:51:37.512Z,2.00
2018-05-06T15:53:40.307Z,2.35
2018-05-06T15:55:43.090Z,2.50
2018-05-06T15:57:47.717Z,2.20
2018-05-06T15:59:53.045Z,1.83
2018-05-06T16:02:06.686Z,1.98
2018-05-06T16:04:15.967Z,2.70
2018-05-06T16:06:21.947Z,1.92
2018-05-06T16:08:27.771Z,2.47
2018-05-06T16:12:46.999Z,2.33
2018-05-06T16:14:51.606Z,1.98
2018-05-06T16:17:03.369Z,1.70
2018-05-06T16:19:08.996Z,1.58
2018-05-06T16:21:13.366Z,1.87
2018-05-06T16:23:17.686Z,1.60
2018-05-06T16:25:24.585Z,1.70
2018-05-06T16:27:27.223Z,1.90
2018-05-06T16:29:31.465Z,1.80
2018-05-06T16:31:34.416Z,1.70
2018-05-06T16:33:39.487Z,1.97
2018-05-06T16:35:42.315Z,1.83
2018-05-06T16:37:44.960Z,1.90
2018-05-06T16:39:47.559Z,1.67
2018-05-06T16:41:51.305Z,1.90
2018-05-06T16:43:53.954Z,1.70
2018-05-06T16:45:56.650Z,2.03
2018-05-06T16:47:59.343Z,1.83
2018-05-06T16:50:02.581Z,1.70
2018-05-06T16:52:05.405Z,1.58
2018-05-06T16:54:09.099Z,1.40
2018-05-06T16:56:13.353Z,1.90
2018-05-06T16:58:16.274Z,1.60
2018-05-06T17:00:20.402Z,1.45
2018-05-06T17:02:25.676Z,1.45
2018-05-06T17:04:31.083Z,1.60
2018-05-06T17:06:35.981Z,1.58
2018-05-06T17:08:40.780Z,1.45
2018-05-06T17:10:46.292Z,1.50
2018-05-06T17:12:51.680Z,1.67
2018-05-06T17:14:55.971Z,1.30
2018-05-06T17:17:00.364Z,1.90
2018-05-06T17:19:05.346Z,1.92
2018-05-06T17:21:10.024Z,1.50
2018-05-06T17:23:15.444Z,1.67
2018-05-06T17:25:21.370Z,1.60
2018-05-06T17:27:26.860Z,1.37
2018-05-06T17:29:32.733Z,1.52
2018-05-06T17:31:36.888Z,1.87
2018-05-06T17:33:41.704Z,1.70
2018-05-06T17:35:55.609Z,1.77
2018-05-06T17:37:58.232Z,1.42
2018-05-06T17:40:01.603Z,1.37
2018-05-06T17:42:04.995Z,1.60
2018-05-06T17:44:07.619Z,1.50
2018-05-06T17:46:10.256Z,1.53
2018-05-06T17:48:13.645Z,1.40
2018-05-06T17:50:16.240Z,1.50
2018-05-06T17:52:19.613Z,1.33
2018-05-06T17:54:23.059Z,1.20
2018-05-06T17:56:25.688Z,1.67
2018-05-06T17:58:29.077Z,1.53
2018-05-06T18:00:31.676Z,1.40
2018-05-06T18:02:35.116Z,1.20
2018-05-06T18:04:37.740Z,1.30
2018-05-06T18:06:41.165Z,1.53
2018-05-06T18:08:43.903Z,1.60
2018-05-06T18:10:47.312Z,1.47
2018-05-06T18:12:49.952Z,1.43
2018-05-06T18:14:52.613Z,1.30
2018-05-06T18:16:55.980Z,1.80
2018-05-06T18:18:58.595Z,1.30
2018-05-06T18:21:01.278Z,1.50
2018-05-06T18:23:03.908Z,1.43
2018-05-06T18:25:06.530Z,1.57
2018-05-06T18:27:09.133Z,1.20
2018-05-06T18:29:12.528Z,1.20
2018-05-06T18:31:15.909Z,1.30
2018-05-06T18:33:19.286Z,1.33
2018-05-06T18:35:21.933Z,1.30
2018-05-06T18:37:24.592Z,1.53
2018-05-06T18:39:27.255Z,1.60
2018-05-06T18:41:29.885Z,1.40
2018-05-06T18:43:32.479Z,1.87
2018-05-06T18:45:35.195Z,1.20
2018-05-06T18:47:37.812Z,1.40
2018-05-06T18:49:40.445Z,1.47
2018-05-06T18:51:43.083Z,1.30
2018-05-06T18:53:45.703Z,1.50
2018-05-06T18:55:48.338Z,1.70
2018-05-06T18:57:50.936Z,1.33
2018-05-06T18:59:54.378Z,1.13
2018-05-06T19:01:57.001Z,1.50
2018-05-06T19:04:00.357Z,1.53
2018-05-06T19:06:03.000Z,1.53
2018-05-06T19:08:05.597Z,1.50
2018-05-06T19:10:08.216Z,1.40
2018-05-06T19:12:11.575Z,1.73
2018-05-06T19:14:14.293Z,1.30
2018-05-06T19:16:17.703Z,1.30
2018-05-06T19:18:20.401Z,1.30
2018-05-06T19:20:23.019Z,1.70
2018-05-06T19:22:25.628Z,2.00
2018-05-06T19:24:28.259Z,1.30
2018-05-06T19:26:30.879Z,2.20
2018-05-06T19:28:33.492Z,1.60
2018-05-06T19:30:36.114Z,1.50
2018-05-06T19:32:39.518Z,1.70
2018-05-06T19:34:42.900Z,1.90
2018-05-06T19:36:47.632Z,1.57
2018-05-06T19:38:50.992Z,1.97
2018-05-06T19:40:53.622Z,1.40
2018-05-06T19:42:56.267Z,1.70
2018-05-06T19:44:58.894Z,1.40
2018-05-06T19:47:01.495Z,1.50
2018-05-06T19:49:04.127Z,1.50
2018-05-06T19:51:06.766Z,1.60
2018-05-06T19:53:09.384Z,1.47
2018-05-06T19:55:11.999Z,1.97
2018-05-06T19:57:14.682Z,1.60
2018-05-06T19:59:17.286Z,1.90
2018-05-06T20:01:20.693Z,1.47
2018-05-06T20:03:24.060Z,1.50
2018-05-06T20:05:26.732Z,1.20
2018-05-06T20:07:29.480Z,1.40
2018-05-06T20:09:31.984Z,1.57
2018-05-06T20:11:34.608Z,1.30
2018-05-06T20:13:37.267Z,1.47
2018-05-06T20:15:39.880Z,1.53
2018-05-06T20:17:42.539Z,1.60
2018-05-06T20:19:45.179Z,1.60
2018-05-06T20:21:48.623Z,1.53
2018-05-06T20:23:51.952Z,1.50
2018-05-06T20:25:55.352Z,1.23
2018-05-06T20:27:58.002Z,1.53
2018-05-06T20:30:00.595Z,1.13
2018-05-06T20:32:03.215Z,1.43
2018-05-06T20:34:05.810Z,1.63
2018-05-06T20:36:08.423Z,1.60
2018-05-06T20:38:11.029Z,1.30
2018-05-06T20:40:13.639Z,1.60
2018-05-06T20:42:16.247Z,1.40
2018-05-06T20:44:18.876Z,1.27
2018-05-06T20:46:21.545Z,1.37
2018-05-06T20:48:24.168Z,1.40
2018-05-06T20:50:26.785Z,1.60
2018-05-06T20:52:30.285Z,1.50
2018-05-06T20:54:32.915Z,1.30
2018-05-06T20:56:35.561Z,1.37
2018-05-06T20:58:38.189Z,1.43
2018-05-06T21:00:40.817Z,1.80
2018-05-06T21:02:43.421Z,1.60
2018-05-06T21:04:46.045Z,1.30
2018-05-06T21:06:48.681Z,1.20
2018-05-06T21:08:51.277Z,1.20
2018-05-06T21:10:54.671Z,1.30
2018-05-06T21:12:58.058Z,1.40
2018-05-06T21:15:00.660Z,1.30
2018-05-06T21:17:03.301Z,1.40
2018-05-06T21:19:05.928Z,1.63
2018-05-06T21:21:08.520Z,1.60
2018-05-06T21:23:11.112Z,1.73
2018-05-06T21:25:13.720Z,1.40
2018-05-06T21:27:17.117Z,1.27
2018-05-06T21:29:20.492Z,1.30
2018-05-06T21:31:23.268Z,1.70
2018-05-06T21:33:26.587Z,1.50
2018-05-06T21:35:29.968Z,1.50
2018-05-06T21:37:33.372Z,1.70
2018-05-06T21:39:36.793Z,1.40
2018-05-06T21:41:39.736Z,1.57
2018-05-06T21:43:43.105Z,1.70
2018-05-06T21:45:45.704Z,1.40
2018-05-06T21:47:48.319Z,1.50
2018-05-06T21:49:50.991Z,1.80
2018-05-06T21:51:54.296Z,1.70
2018-05-06T21:53:56.924Z,1.47
2018-05-06T21:55:59.524Z,2.13
2018-05-06T21:58:02.157Z,1.40
2018-05-06T22:00:04.746Z,1.23
2018-05-06T22:02:07.389Z,1.60
2018-05-06T22:04:10.057Z,1.57
2018-05-06T22:06:12.668Z,1.40
2018-05-06T22:08:15.313Z,1.33
2018-05-06T22:10:18.710Z,1.50
2018-05-06T22:12:21.316Z,1.60
2018-05-06T22:14:24.136Z,1.70
2018-05-06T22:16:26.804Z,2.23
2018-05-06T22:18:30.176Z,1.50
2018-05-06T22:20:32.784Z,1.70
2018-05-06T22:22:35.426Z,1.60
2018-05-06T22:24:38.812Z,1.90
2018-05-06T22:26:41.441Z,1.50
2018-05-06T22:28:44.122Z,1.60
2018-05-06T22:30:46.709Z,1.63
2018-05-06T22:32:49.340Z,1.43
2018-05-06T22:34:52.803Z,1.90
2018-05-06T22:36:56.272Z,1.67
2018-05-06T22:38:58.880Z,1.50
2018-05-06T22:41:01.480Z,1.50
2018-05-06T22:43:04.876Z,1.70
2018-05-06T22:45:08.246Z,1.43
2018-05-06T22:47:10.876Z,1.73
2018-05-06T22:49:13.491Z,1.60
2018-05-06T22:51:16.114Z,1.80
2018-05-06T22:53:18.793Z,1.40
2018-05-06T22:55:21.394Z,1.90
2018-05-06T22:57:24.017Z,1.60
2018-05-06T22:59:27.437Z,1.60
2018-05-06T23:01:30.066Z,1.70
2018-05-06T23:03:32.703Z,1.80
2018-05-06T23:05:35.300Z,1.60
2018-05-06T23:07:37.932Z,1.73
2018-05-06T23:09:40.639Z,1.90
2018-05-06T23:11:43.249Z,2.10
2018-05-06T23:13:45.880Z,1.50
2018-05-06T23:15:48.472Z,2.00
2018-05-06T23:17:51.104Z,2.37
2018-05-06T23:19:54.477Z,1.67
2018-05-06T23:21:57.192Z,1.57
2018-05-06T23:23:59.806Z,1.67
2018-05-06T23:26:02.431Z,1.40
2018-05-06T23:28:05.820Z,1.80
2018-05-06T23:30:09.197Z,1.80
2018-05-06T23:32:11.791Z,1.50
2018-05-06T23:34:15.172Z,1.60
2018-05-06T23:36:17.776Z,1.50
2018-05-06T23:38:20.449Z,1.70
2018-05-06T23:40:23.061Z,1.50
2018-05-06T23:42:25.687Z,1.60
2018-05-06T23:44:29.064Z,1.43
2018-05-06T23:46:31.659Z,1.90
2018-05-06T23:48:35.029Z,1.77
2018-05-06T23:50:37.656Z,1.80
2018-05-06T23:52:40.336Z,1.50
2018-05-06T23:54:42.966Z,1.70
2018-05-06T23:56:45.551Z,1.70
2018-05-06T23:58:48.927Z,1.90
